Time;durP1;ratioP1;P1;durP2;ratioP2;P2;SDS_P1;SDS_P2;PMS_P1;PMS_P2;Temp;Humidity;BMP_temperature;BMP_pressure;BME280_temperature;BME280_humidity;BME280_pressure;Samples;Min_cycle;Max_cycle;Signal;HPM_P1;HPM_P2
2021/12/24 00:00:18;;;;;;;46.83;21.50;;;-2.90;99.90;;;;;;5112360;28;20016;-76
2021/12/24 00:02:44;;;;;;;47.03;24.48;;;-2.90;99.90;;;;;;5110888;28;20073;-77
2021/12/24 00:05:10;;;;;;;55.28;27.92;;;-3.00;99.90;;;;;;5101730;28;20036;-76
2021/12/24 00:07:35;;;;;;;48.03;23.25;;;-2.90;99.90;;;;;;5091880;28;20024;-76
2021/12/24 00:10:02;;;;;;;46.92;22.80;;;-2.90;99.90;;;;;;5091727;28;20056;-76
2021/12/24 00:12:31;;;;;;;51.72;24.83;;;-2.90;99.90;;;;;;5091467;28;20631;-76
2021/12/24 00:15:02;;;;;;;43.22;24.75;;;-2.90;99.90;;;;;;5091879;28;20016;-76
2021/12/24 00:17:31;;;;;;;48.53;21.50;;;-2.90;99.90;;;;;;5091569;28;20092;-76
2021/12/24 00:36:15;;;;;;;38.97;19.45;;;-2.50;99.90;;;;;;5091853;28;20027;-77
2021/12/24 00:38:40;;;;;;;32.65;17.27;;;-2.40;99.90;;;;;;5091305;28;20020;-77
2021/12/24 00:41:06;;;;;;;36.65;19.23;;;-2.30;99.90;;;;;;5091233;28;20024;-77
2021/12/24 00:43:32;;;;;;;33.25;19.63;;;-2.20;99.90;;;;;;5089933;28;20111;-76
2021/12/24 00:45:57;;;;;;;35.45;17.50;;;-2.20;99.90;;;;;;5091349;28;20054;-76
2021/12/24 00:48:23;;;;;;;37.60;18.50;;;-2.00;99.90;;;;;;5091329;28;20026;-77
2021/12/24 00:56:05;;;;;;;32.55;17.60;;;-1.90;99.90;;;;;;5091598;28;20027;-76
2021/12/24 00:58:31;;;;;;;31.02;17.67;;;-1.80;99.90;;;;;;5089763;28;20012;-77
2021/12/24 01:00:58;;;;;;;26.75;14.65;;;-1.80;99.90;;;;;;5091199;28;20122;-77
2021/12/24 01:03:24;;;;;;;26.27;15.23;;;-1.70;99.90;;;;;;5091322;28;20027;-78
2021/12/24 01:05:49;;;;;;;25.85;15.00;;;-1.70;99.90;;;;;;5089525;28;20127;-77
2021/12/24 01:08:15;;;;;;;30.05;15.82;;;-1.70;99.90;;;;;;5091096;28;20100;-78
2021/12/24 01:10:45;;;;;;;33.63;17.25;;;-1.60;99.90;;;;;;5090711;28;20020;-76
2021/12/24 01:13:11;;;;;;;23.40;13.95;;;-1.60;99.90;;;;;;5091064;28;20073;-76
2021/12/24 01:15:42;;;;;;;30.80;16.25;;;-1.60;99.90;;;;;;5090708;28;20032;-77
2021/12/24 01:18:24;;;;;;;29.73;15.27;;;-1.60;99.90;;;;;;5090893;28;20088;-77
2021/12/24 01:20:59;;;;;;;26.60;14.10;;;-1.60;99.90;;;;;;5090758;28;20024;-77
2021/12/24 01:26:01;;;;;;;24.58;15.00;;;-1.60;99.90;;;;;;5091314;28;20130;-77
2021/12/24 01:28:45;;;;;;;23.13;13.65;;;-1.60;99.90;;;;;;5090711;28;20031;-77
2021/12/24 01:39:52;;;;;;;28.42;15.38;;;-1.50;99.90;;;;;;5094924;28;20063;-78
2021/12/24 01:45:24;;;;;;;19.50;10.35;;;-1.50;99.90;;;;;;5094576;28;20047;-77
2021/12/24 01:47:53;;;;;;;24.67;13.07;;;-1.50;99.90;;;;;;5094663;28;20047;-78
2021/12/24 01:50:19;;;;;;;19.63;11.95;;;-1.50;99.90;;;;;;5094361;28;20435;-78
2021/12/24 01:52:48;;;;;;;21.60;13.65;;;-1.50;99.90;;;;;;5094507;28;20027;-78
2021/12/24 01:55:13;;;;;;;21.85;13.25;;;-1.40;99.90;;;;;;5092667;28;20473;-78
2021/12/24 01:57:41;;;;;;;21.30;14.00;;;-1.40;99.90;;;;;;5094262;28;20084;-80
2021/12/24 02:00:09;;;;;;;21.50;12.98;;;-1.40;99.90;;;;;;5092808;28;20057;-78
2021/12/24 02:02:35;;;;;;;19.38;12.48;;;-1.50;99.90;;;;;;5094103;28;20024;-78
2021/12/24 02:05:00;;;;;;;21.58;12.48;;;-1.40;99.90;;;;;;5092858;28;20504;-77
2021/12/24 02:07:26;;;;;;;25.83;13.32;;;-1.40;99.90;;;;;;5094017;28;20028;-79
2021/12/24 02:09:54;;;;;;;21.58;12.93;;;-1.40;99.90;;;;;;5094067;28;20020;-78
2021/12/24 02:12:22;;;;;;;21.23;11.85;;;-1.40;99.90;;;;;;5092615;28;20027;-78
2021/12/24 02:14:51;;;;;;;21.85;12.80;;;-1.40;99.90;;;;;;5093970;28;20363;-78
2021/12/24 02:30:45;;;;;;;24.38;12.40;;;-1.30;99.90;;;;;;5093810;28;20452;-77
2021/12/24 02:33:11;;;;;;;19.02;12.27;;;-1.30;99.90;;;;;;5093907;28;20024;-79
2021/12/24 02:35:37;;;;;;;22.52;13.55;;;-1.30;99.90;;;;;;5092471;28;20500;-77
2021/12/24 02:38:04;;;;;;;20.98;12.60;;;-1.30;99.90;;;;;;5092323;28;20107;-79
2021/12/24 02:40:30;;;;;;;23.08;12.70;;;-1.30;99.90;;;;;;5093528;28;20050;-77
2021/12/24 02:42:58;;;;;;;20.90;14.00;;;-1.30;99.90;;;;;;5093646;28;20110;-77
2021/12/24 02:45:26;;;;;;;26.23;14.20;;;-1.30;99.90;;;;;;5093526;28;20036;-77
2021/12/24 02:56:03;;;;;;;27.02;14.82;;;-1.30;99.90;;;;;;5093924;28;20094;-77
2021/12/24 02:58:47;;;;;;;26.85;15.40;;;-1.30;99.90;;;;;;5093164;28;20115;-78
2021/12/24 03:01:16;;;;;;;29.60;14.48;;;-1.20;99.90;;;;;;5092057;28;20111;-78
2021/12/24 03:03:47;;;;;;;21.58;13.25;;;-1.20;99.90;;;;;;5091599;28;20027;-77
2021/12/24 03:06:18;;;;;;;25.50;14.65;;;-1.20;99.90;;;;;;5092848;28;20120;-77
2021/12/24 03:08:43;;;;;;;22.70;14.70;;;-1.20;99.90;;;;;;5091544;28;20364;-77
2021/12/24 03:11:09;;;;;;;33.55;17.00;;;-1.20;99.90;;;;;;5094447;28;20028;-78
2021/12/24 03:13:36;;;;;;;42.50;23.30;;;-1.20;99.90;;;;;;5113138;28;20455;-78
2021/12/24 03:16:03;;;;;;;38.00;18.48;;;-1.20;99.90;;;;;;5092586;28;20542;-77
2021/12/24 03:18:31;;;;;;;24.88;14.95;;;-1.20;99.90;;;;;;5108849;28;20068;-77
2021/12/24 03:21:10;;;;;;;23.15;15.02;;;-1.20;99.90;;;;;;5112854;28;20027;-77
2021/12/24 03:23:42;;;;;;;32.15;18.85;;;-1.20;99.90;;;;;;5112800;28;20020;-77
2021/12/24 03:26:12;;;;;;;31.90;17.63;;;-1.10;99.90;;;;;;5113424;28;20067;-77
2021/12/24 03:28:38;;;;;;;27.50;14.45;;;-1.10;99.90;;;;;;5113259;28;20041;-77
2021/12/24 03:31:05;;;;;;;25.45;15.73;;;-1.10;99.90;;;;;;5092258;28;20532;-77
2021/12/24 03:33:31;;;;;;;26.85;15.88;;;-1.10;99.90;;;;;;5091095;28;20057;-77
2021/12/24 03:35:57;;;;;;;25.45;13.77;;;-1.10;99.90;;;;;;5092576;28;20028;-77
2021/12/24 03:38:22;;;;;;;26.65;15.63;;;-1.10;99.90;;;;;;5092202;28;20024;-78
2021/12/24 03:40:48;;;;;;;26.65;15.05;;;-1.10;99.90;;;;;;5092281;28;20035;-77
2021/12/24 03:43:14;;;;;;;29.25;15.57;;;-1.10;99.90;;;;;;5090926;28;20492;-77
2021/12/24 03:48:24;;;;;;;26.15;14.50;;;-1.10;99.90;;;;;;5092476;28;20058;-77
2021/12/24 03:50:59;;;;;;;24.80;15.63;;;-1.00;99.90;;;;;;5109359;28;20028;-78
2021/12/24 03:56:08;;;;;;;27.05;16.35;;;-1.00;99.90;;;;;;5112111;28;20065;-78
2021/12/24 03:58:34;;;;;;;25.63;14.13;;;-1.00;99.90;;;;;;5112436;28;20033;-78
2021/12/24 04:01:00;;;;;;;25.98;16.42;;;-1.00;99.90;;;;;;5111509;28;20102;-78
2021/12/24 04:03:25;;;;;;;28.35;15.88;;;-1.00;99.90;;;;;;5110906;28;20362;-80
2021/12/24 04:05:51;;;;;;;29.90;18.05;;;-0.90;99.90;;;;;;5110824;28;20038;-78
2021/12/24 04:08:17;;;;;;;27.63;15.32;;;-0.90;99.90;;;;;;5112301;28;20027;-78
2021/12/24 04:10:43;;;;;;;30.02;15.95;;;-0.90;99.90;;;;;;5112089;28;20027;-77
2021/12/24 04:13:11;;;;;;;25.40;16.48;;;-0.90;99.90;;;;;;5112324;28;20026;-79
2021/12/24 04:15:37;;;;;;;27.45;16.05;;;-0.90;99.90;;;;;;5110820;28;20016;-77
2021/12/24 04:18:14;;;;;;;26.58;16.42;;;-0.90;99.90;;;;;;5111012;28;20027;-78
2021/12/24 04:26:10;;;;;;;28.55;16.58;;;-0.80;99.90;;;;;;5112033;28;20042;-78
2021/12/24 04:28:35;;;;;;;31.33;17.10;;;-0.80;99.90;;;;;;5110338;28;20711;-78
2021/12/24 04:31:02;;;;;;;33.60;17.27;;;-0.80;99.90;;;;;;5110649;28;20023;-77
2021/12/24 04:33:37;;;;;;;34.85;17.95;;;-0.80;99.90;;;;;;5111964;28;20111;-78
2021/12/24 05:03:07;;;;;;;31.73;16.15;;;-0.70;99.90;;;;;;5111500;28;20115;-78
2021/12/24 05:05:43;;;;;;;32.88;17.67;;;-0.70;99.90;;;;;;5111495;28;20027;-78
2021/12/24 05:08:28;;;;;;;32.80;19.08;;;-0.70;99.90;;;;;;5110533;28;20499;-78
2021/12/24 05:10:54;;;;;;;37.38;19.02;;;-0.70;99.90;;;;;;5110033;28;20106;-77
2021/12/24 05:13:21;;;;;;;32.53;18.38;;;-0.60;99.90;;;;;;5112270;28;20505;-79
2021/12/24 05:15:57;;;;;;;32.92;19.10;;;-0.60;99.90;;;;;;5114123;28;20058;-77
2021/12/24 05:21:33;;;;;;;32.92;19.23;;;-0.60;99.90;;;;;;5052235;28;20048;-78
2021/12/24 05:24:07;;;;;;;38.50;18.77;;;-0.60;99.90;;;;;;5102085;28;20032;-78
2021/12/24 05:26:34;;;;;;;35.13;19.60;;;-0.60;99.90;;;;;;5115450;27;20114;-78
2021/12/24 05:29:01;;;;;;;36.88;20.10;;;-0.60;99.90;;;;;;5115446;28;20500;-77
2021/12/24 05:31:28;;;;;;;38.25;21.20;;;-0.60;99.90;;;;;;5113669;28;20031;-78
2021/12/24 05:33:53;;;;;;;41.47;23.45;;;-0.50;99.90;;;;;;5115294;28;20029;-77
2021/12/24 05:36:19;;;;;;;43.35;20.90;;;-0.50;99.90;;;;;;5115002;28;20020;-79
2021/12/24 05:38:46;;;;;;;49.17;23.70;;;-0.50;99.90;;;;;;5113563;28;20122;-78
2021/12/24 05:41:12;;;;;;;40.08;21.20;;;-0.50;99.90;;;;;;5113715;28;20081;-78
2021/12/24 05:43:38;;;;;;;40.70;22.83;;;-0.50;99.90;;;;;;5114917;28;20039;-78
2021/12/24 05:46:04;;;;;;;46.83;22.80;;;-0.50;99.90;;;;;;5107263;28;20032;-78
2021/12/24 05:48:30;;;;;;;37.60;21.27;;;-0.50;99.90;;;;;;5094461;28;20032;-79
2021/12/24 05:50:57;;;;;;;45.22;22.58;;;-0.50;99.90;;;;;;5094580;28;20024;-78
2021/12/24 05:53:23;;;;;;;38.03;22.23;;;-0.50;99.90;;;;;;5092784;28;20399;-78
2021/12/24 05:55:49;;;;;;;44.80;23.15;;;-0.50;99.90;;;;;;5093894;28;20020;-78
2021/12/24 05:58:15;;;;;;;47.70;23.85;;;-0.50;99.90;;;;;;5094299;28;20107;-78
2021/12/24 06:00:43;;;;;;;51.10;23.80;;;-0.40;99.90;;;;;;5094062;28;20028;-77
2021/12/24 06:03:09;;;;;;;43.08;24.77;;;-0.50;99.90;;;;;;5092678;28;20114;-78
2021/12/24 06:05:36;;;;;;;49.38;24.17;;;-0.50;99.90;;;;;;5092600;28;20110;-78
2021/12/24 06:08:03;;;;;;;44.90;24.75;;;-0.50;99.90;;;;;;5109899;27;20069;-78
2021/12/24 06:10:29;;;;;;;45.75;24.63;;;-0.40;99.90;;;;;;5093724;28;20028;-79
2021/12/24 06:12:56;;;;;;;50.58;27.05;;;-0.40;99.90;;;;;;5092769;28;20016;-78
2021/12/24 06:15:23;;;;;;;92.18;37.85;;;-0.40;99.90;;;;;;5093546;28;20470;-78
2021/12/24 06:17:54;;;;;;;68.00;30.00;;;-0.40;99.90;;;;;;5093646;28;20028;-78
2021/12/24 06:20:20;;;;;;;53.60;26.60;;;-0.40;99.90;;;;;;5093611;28;20363;-78
2021/12/24 06:22:46;;;;;;;96.47;41.20;;;-0.40;99.90;;;;;;5109041;28;20278;-78
2021/12/24 06:25:12;;;;;;;202.70;79.63;;;-0.40;99.90;;;;;;5089828;28;20032;-78
2021/12/24 06:27:38;;;;;;;264.27;103.85;;;-0.40;99.90;;;;;;5093931;28;20480;-78
2021/12/24 06:30:06;;;;;;;342.95;120.95;;;-0.40;99.90;;;;;;5092093;28;20428;-78
2021/12/24 06:32:31;;;;;;;305.95;113.05;;;-0.40;99.90;;;;;;5092053;28;20517;-78
2021/12/24 06:34:57;;;;;;;458.33;155.63;;;-0.40;99.90;;;;;;5092026;28;20032;-78
2021/12/24 06:37:24;;;;;;;452.67;154.15;;;-0.40;99.90;;;;;;5092874;28;20092;-78
2021/12/24 06:39:50;;;;;;;342.40;115.78;;;-0.40;99.90;;;;;;5093343;28;20027;-77
2021/12/24 06:42:16;;;;;;;379.10;126.13;;;-0.30;99.90;;;;;;5092083;28;20020;-78
2021/12/24 06:44:42;;;;;;;281.45;93.30;;;-0.40;99.90;;;;;;5093737;28;20157;-77
2021/12/24 06:47:07;;;;;;;226.88;79.78;;;-0.30;99.90;;;;;;5093428;28;20032;-78
2021/12/24 06:49:34;;;;;;;379.45;118.95;;;-0.40;99.90;;;;;;5093564;28;20028;-77
2021/12/24 06:51:59;;;;;;;132.52;48.55;;;-0.30;99.90;;;;;;5091512;28;20114;-78
2021/12/24 06:54:25;;;;;;;159.82;53.17;;;-0.30;99.90;;;;;;5093265;28;20070;-77
2021/12/24 06:56:51;;;;;;;168.23;58.42;;;-0.30;99.90;;;;;;5092390;28;20465;-77
2021/12/24 06:59:16;;;;;;;243.68;87.00;;;-0.30;99.90;;;;;;5089972;28;20024;-77
2021/12/24 07:01:43;;;;;;;404.92;130.82;;;-0.30;99.90;;;;;;5092336;28;20428;-78
2021/12/24 07:04:09;;;;;;;150.63;54.35;;;-0.30;99.90;;;;;;5091257;28;20095;-77
2021/12/24 07:06:35;;;;;;;282.63;89.97;;;-0.30;99.90;;;;;;5090990;28;20024;-78
2021/12/24 07:09:01;;;;;;;196.80;71.32;;;-0.30;99.90;;;;;;5092769;28;20081;-78
2021/12/24 07:11:27;;;;;;;237.38;81.40;;;-0.30;99.90;;;;;;5092889;28;20059;-78
2021/12/24 07:13:53;;;;;;;218.50;78.20;;;-0.20;99.90;;;;;;5110895;28;20070;-78
2021/12/24 07:16:18;;;;;;;250.45;85.65;;;-0.20;99.90;;;;;;5107145;28;20466;-78
2021/12/24 07:18:44;;;;;;;222.73;78.43;;;-0.20;99.90;;;;;;5101781;28;20469;-79
2021/12/24 07:21:10;;;;;;;136.68;52.80;;;-0.20;99.90;;;;;;5102700;28;20039;-79
2021/12/24 07:23:35;;;;;;;118.10;46.10;;;-0.20;99.90;;;;;;5106334;28;20012;-78
2021/12/24 07:26:01;;;;;;;166.27;60.58;;;-0.20;99.90;;;;;;5111078;28;20035;-78
2021/12/24 07:28:27;;;;;;;233.10;84.53;;;-0.10;99.90;;;;;;5111441;28;20016;-78
2021/12/24 07:30:54;;;;;;;181.85;64.65;;;-0.10;99.90;;;;;;5105483;28;20019;-78
2021/12/24 07:33:20;;;;;;;157.20;55.45;;;-0.10;99.90;;;;;;5099857;28;20020;-78
2021/12/24 07:35:46;;;;;;;169.50;60.58;;;-0.10;99.90;;;;;;5098917;28;20016;-77
2021/12/24 07:38:15;;;;;;;177.02;67.82;;;-0.10;99.90;;;;;;5100995;28;20022;-78
2021/12/24 07:40:43;;;;;;;97.93;44.33;;;-0.10;99.90;;;;;;5102722;28;20024;-78
2021/12/24 07:43:08;;;;;;;149.98;56.90;;;0.00;99.90;;;;;;5098666;28;20020;-77
2021/12/24 07:45:34;;;;;;;146.77;53.53;;;0.00;99.90;;;;;;5097664;28;20028;-78
2021/12/24 07:48:15;;;;;;;104.43;44.75;;;0.00;99.90;;;;;;5100354;28;20020;-78
2021/12/24 07:53:12;;;;;;;118.47;47.75;;;0.10;99.90;;;;;;5100707;28;20559;-78
2021/12/24 07:55:38;;;;;;;165.18;63.03;;;0.10;99.90;;;;;;5101343;28;20240;-77
2021/12/24 07:58:06;;;;;;;149.85;54.60;;;0.10;99.90;;;;;;5101349;28;20027;-77
2021/12/24 08:00:32;;;;;;;101.35;43.47;;;0.10;99.90;;;;;;5102284;28;20024;-78
2021/12/24 08:02:58;;;;;;;91.68;38.03;;;0.20;99.90;;;;;;5100460;28;20017;-78
2021/12/24 08:05:25;;;;;;;81.60;37.05;;;0.20;99.90;;;;;;5109638;28;20499;-77
2021/12/24 08:07:53;;;;;;;97.97;42.72;;;0.20;99.90;;;;;;5099771;28;20069;-77
2021/12/24 08:10:20;;;;;;;123.10;53.90;;;0.20;99.90;;;;;;5107244;28;20028;-78
2021/12/24 08:12:46;;;;;;;220.20;83.97;;;0.20;99.90;;;;;;5094576;28;20020;-77
2021/12/24 08:15:12;;;;;;;96.97;43.47;;;0.30;99.90;;;;;;5096431;28;20522;-77
2021/12/24 08:17:38;;;;;;;88.05;38.78;;;0.30;99.90;;;;;;5100798;28;20470;-78
2021/12/24 08:20:05;;;;;;;102.40;42.28;;;0.30;99.90;;;;;;5097881;28;20460;-77
2021/12/24 08:22:31;;;;;;;106.45;47.30;;;0.30;99.90;;;;;;5098409;28;20093;-78
2021/12/24 08:24:56;;;;;;;129.85;55.97;;;0.30;99.90;;;;;;5102874;28;20027;-77
2021/12/24 08:27:22;;;;;;;217.23;89.90;;;0.30;99.90;;;;;;5110067;28;20032;-79
2021/12/24 08:29:48;;;;;;;127.53;53.55;;;0.30;99.90;;;;;;5095598;28;20038;-79
2021/12/24 08:32:14;;;;;;;112.57;45.10;;;0.40;99.90;;;;;;5099439;28;20020;-78
2021/12/24 08:34:41;;;;;;;93.28;40.97;;;0.40;99.90;;;;;;5098510;28;20418;-78
2021/12/24 08:37:07;;;;;;;106.88;43.72;;;0.50;99.90;;;;;;5099944;28;20507;-78
2021/12/24 08:39:33;;;;;;;124.50;53.83;;;0.40;99.90;;;;;;5098755;28;20050;-77
2021/12/24 08:41:59;;;;;;;144.07;61.05;;;0.50;99.90;;;;;;5098919;28;20047;-78
2021/12/24 08:44:29;;;;;;;100.53;44.22;;;0.50;99.90;;;;;;5088386;28;20896;-77
2021/12/24 08:46:55;;;;;;;87.07;37.88;;;0.50;99.90;;;;;;5113870;27;20193;-80
2021/12/24 08:49:23;;;;;;;86.13;40.00;;;0.50;99.90;;;;;;5087560;28;20107;-77
2021/12/24 08:51:49;;;;;;;111.25;44.85;;;0.50;99.90;;;;;;5099040;28;20087;-77
2021/12/24 08:54:15;;;;;;;119.80;50.70;;;0.60;99.90;;;;;;5093418;28;20533;-77
2021/12/24 08:56:41;;;;;;;141.77;60.33;;;0.60;99.90;;;;;;5096536;28;20107;-79
2021/12/24 08:59:07;;;;;;;107.88;43.17;;;0.60;99.90;;;;;;5092151;28;20377;-79
2021/12/24 09:01:33;;;;;;;77.15;38.67;;;0.60;99.90;;;;;;5090912;28;20029;-78
2021/12/24 09:03:58;;;;;;;89.38;40.03;;;0.70;99.90;;;;;;5090202;28;20028;-78
2021/12/24 09:06:25;;;;;;;78.53;34.65;;;0.70;99.90;;;;;;5094322;28;20047;-78
2021/12/24 09:08:50;;;;;;;87.53;39.72;;;0.60;99.90;;;;;;5096554;28;20501;-77
2021/12/24 09:11:16;;;;;;;84.28;39.15;;;0.70;99.90;;;;;;5098064;28;20058;-78
2021/12/24 09:13:43;;;;;;;81.68;36.97;;;0.70;99.90;;;;;;5097301;28;20503;-79
2021/12/24 09:16:09;;;;;;;89.47;39.00;;;0.70;99.90;;;;;;5093846;28;20024;-78
2021/12/24 09:18:36;;;;;;;87.32;42.50;;;0.70;99.90;;;;;;5098297;28;20437;-79
2021/12/24 09:21:03;;;;;;;86.90;40.20;;;0.70;99.90;;;;;;5097214;28;20572;-78
2021/12/24 09:23:29;;;;;;;77.45;36.53;;;0.70;99.90;;;;;;5093987;28;20031;-78
2021/12/24 09:25:55;;;;;;;107.30;43.75;;;0.70;99.90;;;;;;5099045;28;20028;-78
2021/12/24 09:28:21;;;;;;;83.25;38.17;;;0.70;99.90;;;;;;5098301;28;21194;-79
2021/12/24 09:30:46;;;;;;;89.45;39.25;;;0.80;99.90;;;;;;5089673;28;20116;-78
2021/12/24 09:33:12;;;;;;;105.65;47.55;;;0.80;99.90;;;;;;5090274;28;20484;-78
2021/12/24 09:35:38;;;;;;;79.32;36.80;;;0.80;99.90;;;;;;5094320;28;20225;-77
2021/12/24 09:38:04;;;;;;;88.32;37.13;;;0.80;99.90;;;;;;5091965;28;20020;-78
2021/12/24 09:40:33;;;;;;;73.22;33.85;;;0.90;99.90;;;;;;5095157;28;20023;-77
2021/12/24 09:43:00;;;;;;;157.52;71.38;;;0.90;99.90;;;;;;5094167;28;20504;-77
2021/12/24 09:45:25;;;;;;;309.45;114.60;;;0.90;99.90;;;;;;5095669;28;20115;-77
2021/12/24 09:47:51;;;;;;;104.28;38.67;;;0.90;99.90;;;;;;5089564;28;20024;-77
2021/12/24 09:50:21;;;;;;;87.85;37.80;;;1.00;99.90;;;;;;5097211;28;20027;-76
2021/12/24 09:52:49;;;;;;;105.93;52.50;;;0.90;99.90;;;;;;5096867;28;20641;-78
2021/12/24 09:55:21;;;;;;;115.90;52.80;;;1.00;99.90;;;;;;5087633;28;20016;-77
2021/12/24 09:57:48;;;;;;;133.63;51.35;;;1.00;99.90;;;;;;5098082;28;20051;-78
2021/12/24 10:00:20;;;;;;;89.28;41.22;;;1.00;99.90;;;;;;5089562;28;20529;-77
2021/12/24 10:02:49;;;;;;;90.53;40.63;;;1.00;99.90;;;;;;5099617;28;20044;-80
2021/12/24 10:05:35;;;;;;;77.75;36.92;;;1.00;99.90;;;;;;5096228;28;20059;-85
2021/12/24 10:08:12;;;;;;;71.43;35.47;;;1.00;99.90;;;;;;5100509;28;20379;-82
2021/12/24 10:10:42;;;;;;;81.57;41.58;;;1.10;99.90;;;;;;5094569;28;20021;-81
2021/12/24 10:13:29;;;;;;;76.07;35.45;;;1.10;99.90;;;;;;5101281;28;20402;-81
2021/12/24 10:15:58;;;;;;;81.47;37.83;;;1.10;99.90;;;;;;5096562;28;20012;-79
2021/12/24 10:18:30;;;;;;;73.03;35.33;;;1.10;99.90;;;;;;5098547;28;20031;-81
2021/12/24 10:21:14;;;;;;;92.80;40.70;;;1.20;99.90;;;;;;5099636;28;20043;-82
2021/12/24 10:23:41;;;;;;;79.53;38.00;;;1.20;99.90;;;;;;5098079;28;20045;-81
2021/12/24 10:26:19;;;;;;;110.65;51.67;;;1.20;99.90;;;;;;5098243;28;20497;-83
2021/12/24 10:28:49;;;;;;;98.88;45.50;;;1.20;99.90;;;;;;5106795;28;20039;-83
2021/12/24 10:31:21;;;;;;;88.35;39.58;;;1.30;99.90;;;;;;5097506;28;20085;-84
2021/12/24 10:34:03;;;;;;;88.35;38.15;;;1.30;99.90;;;;;;5096878;28;20027;-84
2021/12/24 10:36:29;;;;;;;93.55;41.72;;;1.40;99.90;;;;;;5095866;28;20024;-84
2021/12/24 10:38:55;;;;;;;85.05;37.97;;;1.40;99.90;;;;;;5097763;28;20548;-79
2021/12/24 10:41:21;;;;;;;73.72;35.75;;;1.40;99.90;;;;;;5095715;28;20037;-80
2021/12/24 10:43:46;;;;;;;67.70;34.58;;;1.40;99.90;;;;;;5097305;28;20051;-79
2021/12/24 10:46:16;;;;;;;88.80;42.30;;;1.40;99.90;;;;;;5097665;28;20031;-82
2021/12/24 10:49:02;;;;;;;88.72;43.28;;;1.50;99.90;;;;;;5097586;28;20067;-77
2021/12/24 10:52:11;;;;;;;77.13;41.40;;;1.50;99.90;;;;;;5096177;28;20024;-76
2021/12/24 10:54:19;;;;;;;70.78;34.80;;;1.50;99.90;;;;;;5094091;28;20019;-75
2021/12/24 10:56:44;;;;;;;72.40;37.53;;;1.50;99.90;;;;;;5095916;28;20023;-77
2021/12/24 10:59:10;;;;;;;74.28;34.58;;;1.50;99.90;;;;;;5096417;28;20103;-79
2021/12/24 11:01:36;;;;;;;81.53;38.83;;;1.60;99.90;;;;;;5098265;28;20055;-79
2021/12/24 11:04:01;;;;;;;72.30;34.10;;;1.60;99.90;;;;;;5097864;28;20055;-79
2021/12/24 11:06:30;;;;;;;67.90;36.00;;;1.60;99.90;;;;;;5097147;28;20071;-79
2021/12/24 11:08:57;;;;;;;69.97;31.92;;;1.60;99.90;;;;;;5098003;28;20055;-79
2021/12/24 11:11:22;;;;;;;66.55;35.58;;;1.60;99.90;;;;;;5097746;28;20023;-80
2021/12/24 11:13:49;;;;;;;72.70;36.90;;;1.60;99.90;;;;;;5092171;28;20031;-79
2021/12/24 11:16:20;;;;;;;66.55;34.42;;;1.70;99.90;;;;;;5099807;28;20030;-76
2021/12/24 11:18:57;;;;;;;69.25;33.45;;;1.70;99.90;;;;;;5104105;28;20457;-77
2021/12/24 11:21:26;;;;;;;67.00;34.55;;;1.70;99.90;;;;;;5096876;28;20023;-77
2021/12/24 11:23:54;;;;;;;62.95;32.13;;;1.70;99.90;;;;;;5098208;28;20036;-76
2021/12/24 11:26:32;;;;;;;70.43;33.15;;;1.70;99.90;;;;;;5096854;28;20031;-75
2021/12/24 11:28:58;;;;;;;65.63;33.25;;;1.70;99.90;;;;;;5102981;28;20036;-80
2021/12/24 11:31:32;;;;;;;70.82;34.40;;;1.80;99.90;;;;;;5096245;28;20089;-78
2021/12/24 11:33:58;;;;;;;71.40;34.78;;;1.70;99.90;;;;;;5097943;28;20032;-78
2021/12/24 11:36:26;;;;;;;73.97;36.03;;;1.70;99.90;;;;;;5095825;28;20083;-79
2021/12/24 11:38:59;;;;;;;72.25;34.60;;;1.80;99.90;;;;;;5096221;28;20036;-76
2021/12/24 11:41:29;;;;;;;64.00;32.38;;;1.80;99.90;;;;;;5114044;27;20023;-76
2021/12/24 11:43:56;;;;;;;66.50;32.22;;;1.80;99.90;;;;;;5096400;28;20557;-80
2021/12/24 11:46:24;;;;;;;61.50;30.58;;;1.80;99.90;;;;;;5095232;28;20063;-81
2021/12/24 11:48:51;;;;;;;56.20;30.33;;;1.80;99.90;;;;;;5096608;28;20028;-79
2021/12/24 11:51:22;;;;;;;64.13;31.85;;;2.00;99.90;;;;;;5094318;28;20320;-76
2021/12/24 11:53:48;;;;;;;61.33;31.45;;;2.00;99.90;;;;;;5094280;28;20039;-75
2021/12/24 11:56:17;;;;;;;67.03;33.03;;;2.00;99.90;;;;;;5104255;28;20028;-75
2021/12/24 11:58:51;;;;;;;64.10;32.55;;;2.00;99.90;;;;;;5094129;28;20055;-75
2021/12/24 12:01:21;;;;;;;66.22;31.42;;;2.00;99.90;;;;;;5096661;28;20023;-77
2021/12/24 12:03:52;;;;;;;63.72;32.65;;;2.00;99.90;;;;;;5098680;28;20028;-76
2021/12/24 12:06:20;;;;;;;62.70;31.17;;;2.10;99.90;;;;;;5093759;28;20031;-75
2021/12/24 12:08:48;;;;;;;79.22;35.08;;;2.10;99.90;;;;;;5096910;28;20035;-75
2021/12/24 12:11:13;;;;;;;65.05;32.25;;;2.10;99.90;;;;;;5097827;28;20389;-75
2021/12/24 12:13:42;;;;;;;69.07;34.85;;;2.10;99.90;;;;;;5094408;28;20016;-75
2021/12/24 12:16:12;;;;;;;120.38;59.35;;;2.10;99.90;;;;;;5096542;28;20069;-75
2021/12/24 12:19:00;;;;;;;152.85;69.15;;;2.10;99.90;;;;;;5095651;28;20375;-75
2021/12/24 12:21:43;;;;;;;78.35;37.10;;;2.20;99.90;;;;;;5094354;28;20055;-75
2021/12/24 12:26:43;;;;;;;63.38;30.17;;;2.20;99.90;;;;;;5092503;28;20035;-75
2021/12/24 12:29:30;;;;;;;56.67;28.60;;;2.10;99.90;;;;;;5093833;28;20051;-76
2021/12/24 12:32:14;;;;;;;56.45;30.67;;;2.20;99.90;;;;;;5094436;28;20016;-75
2021/12/24 12:34:43;;;;;;;64.82;33.13;;;2.20;99.90;;;;;;5096651;28;20040;-75
2021/12/24 12:37:20;;;;;;;61.95;30.42;;;2.30;99.90;;;;;;5094348;28;20012;-75
2021/12/24 12:39:49;;;;;;;57.53;28.67;;;2.30;99.90;;;;;;5095051;28;20036;-75
2021/12/24 12:42:17;;;;;;;60.97;31.33;;;2.40;99.90;;;;;;5092534;28;20014;-75
2021/12/24 12:44:53;;;;;;;50.05;27.25;;;2.40;99.90;;;;;;5094074;28;20043;-75
2021/12/24 12:47:24;;;;;;;52.35;28.33;;;2.40;99.90;;;;;;5095556;28;20028;-75
2021/12/24 12:50:10;;;;;;;56.35;29.98;;;2.40;99.90;;;;;;5098006;28;20032;-76
2021/12/24 12:52:36;;;;;;;55.90;27.17;;;2.40;99.90;;;;;;5092290;28;20115;-77
2021/12/24 12:55:03;;;;;;;55.17;29.05;;;2.50;99.90;;;;;;5091272;28;20110;-78
2021/12/24 12:57:37;;;;;;;58.97;28.60;;;2.50;99.90;;;;;;5095578;28;20024;-77
2021/12/24 13:00:19;;;;;;;54.28;29.50;;;2.50;99.90;;;;;;5096437;28;20529;-76
2021/12/24 13:02:57;;;;;;;51.77;28.77;;;2.50;99.90;;;;;;5094155;28;20073;-75
2021/12/24 13:05:29;;;;;;;53.95;27.33;;;2.60;99.90;;;;;;5089491;28;20036;-77
2021/12/24 13:07:59;;;;;;;52.97;26.38;;;2.60;99.90;;;;;;5093392;28;20023;-76
2021/12/24 13:10:26;;;;;;;53.22;27.17;;;2.60;99.90;;;;;;5093910;28;20072;-76
2021/12/24 13:13:00;;;;;;;59.85;27.83;;;2.70;99.90;;;;;;5087419;28;20019;-75
2021/12/24 13:15:25;;;;;;;51.10;26.65;;;2.70;99.90;;;;;;5089225;28;20043;-74
2021/12/24 13:17:51;;;;;;;50.30;27.05;;;2.70;99.90;;;;;;5092491;28;20019;-75
2021/12/24 13:23:19;;;;;;;67.43;36.45;;;2.70;99.90;;;;;;5085708;28;20107;-74
2021/12/24 13:25:44;;;;;;;54.35;29.88;;;2.70;99.90;;;;;;5093199;28;20435;-75
2021/12/24 13:28:10;;;;;;;55.35;29.58;;;2.70;99.90;;;;;;5088810;28;20028;-74
2021/12/24 13:30:36;;;;;;;57.88;27.60;;;2.70;99.90;;;;;;5088809;28;20066;-74
2021/12/24 13:33:06;;;;;;;55.20;28.77;;;2.70;99.90;;;;;;5091316;28;20024;-74
2021/12/24 13:35:45;;;;;;;58.72;32.55;;;2.80;99.90;;;;;;5097555;28;20036;-74
2021/12/24 13:38:27;;;;;;;54.47;28.50;;;2.80;99.90;;;;;;5096553;28;20542;-75
2021/12/24 13:40:54;;;;;;;56.97;29.37;;;2.80;99.90;;;;;;5097443;28;20485;-74
2021/12/24 13:43:20;;;;;;;51.75;29.05;;;2.80;99.90;;;;;;5100546;28;20282;-74
2021/12/24 13:45:49;;;;;;;88.97;49.40;;;2.80;99.90;;;;;;5096396;28;20023;-74
2021/12/24 13:48:45;;;;;;;57.78;29.15;;;2.80;99.90;;;;;;5095869;28;20381;-75
2021/12/24 13:56:38;;;;;;;54.33;27.85;;;2.80;99.90;;;;;;5095991;28;20042;-74
2021/12/24 13:59:05;;;;;;;53.78;26.60;;;2.80;99.90;;;;;;5098074;28;20028;-74
2021/12/24 14:01:32;;;;;;;47.33;26.02;;;2.80;99.90;;;;;;5098290;28;20028;-73
2021/12/24 14:04:01;;;;;;;50.13;25.25;;;2.80;99.90;;;;;;5100001;28;20043;-75
2021/12/24 14:06:38;;;;;;;53.28;27.95;;;2.80;99.90;;;;;;5099992;28;20040;-75
2021/12/24 14:09:14;;;;;;;46.45;24.40;;;2.80;99.90;;;;;;5095294;28;20516;-75
2021/12/24 14:11:41;;;;;;;66.50;31.55;;;2.90;99.90;;;;;;5099233;28;20469;-75
2021/12/24 14:14:29;;;;;;;54.47;26.08;;;2.90;99.90;;;;;;5100250;28;20614;-76
2021/12/24 14:17:36;;;;;;;55.05;29.00;;;2.90;99.90;;;;;;5093318;28;20062;-75
2021/12/24 14:20:24;;;;;;;51.58;25.60;;;2.90;99.90;;;;;;5111628;27;20421;-75
2021/12/24 14:22:49;;;;;;;50.97;28.15;;;2.90;99.90;;;;;;5099659;28;20036;-75
2021/12/24 14:25:15;;;;;;;55.83;28.08;;;2.90;99.90;;;;;;5092368;28;20043;-76
2021/12/24 14:27:48;;;;;;;56.65;29.00;;;2.90;99.90;;;;;;5094720;28;20102;-76
2021/12/24 14:30:18;;;;;;;63.90;29.88;;;2.80;99.90;;;;;;5094470;28;20557;-76